Time;durP1;ratioP1;P1;durP2;ratioP2;P2;SDS_P1;SDS_P2;PMS_P1;PMS_P2;Temp;Humidity;BMP_temperature;BMP_pressure;BME280_temperature;BME280_humidity;BME280_pressure;Samples;Min_cycle;Max_cycle;Signal;HPM_P1;HPM_P2
2020/12/06 00:01:17;;;;;;;1.92;1.73;;;;;;;22.21;28.85;100087.28;5037767;27;97464;-45
2020/12/06 00:03:42;;;;;;;2.40;1.83;;;;;;;22.20;28.65;100090.84;5037286;27;115945;-45
2020/12/06 00:06:08;;;;;;;1.83;1.70;;;;;;;22.20;28.84;100085.53;5043305;27;96806;-44
2020/12/06 00:08:33;;;;;;;3.40;1.90;;;;;;;22.20;29.03;100090.84;5022960;27;111604;-45
2020/12/06 00:10:59;;;;;;;2.50;2.10;;;;;;;22.20;28.70;100090.84;5023352;27;97593;-45
2020/12/06 00:13:24;;;;;;;2.35;1.70;;;;;;;22.20;28.73;100085.53;5042416;27;97415;-45
2020/12/06 00:15:50;;;;;;;2.60;2.40;;;;;;;22.21;28.64;100081.06;5038304;27;112003;-45
2020/12/06 00:18:15;;;;;;;2.15;1.85;;;;;;;22.21;28.66;100073.09;5037254;27;97043;-45
2020/12/06 00:20:41;;;;;;;2.38;2.05;;;;;;;22.20;29.04;100076.72;5021745;27;119906;-45
2020/12/06 00:23:06;;;;;;;2.25;1.67;;;;;;;22.21;29.02;100091.69;5041528;27;126778;-45
2020/12/06 00:25:32;;;;;;;2.55;1.73;;;;;;;22.20;28.84;100082.88;5005024;27;98495;-45
2020/12/06 00:27:57;;;;;;;2.20;1.98;;;;;;;22.20;28.92;100079.38;5036036;27;115855;-45
2020/12/06 00:30:23;;;;;;;2.33;1.92;;;;;;;22.20;28.92;100079.38;5019917;27;97459;-45
2020/12/06 00:32:48;;;;;;;2.10;1.80;;;;;;;22.20;28.95;100077.56;5040477;27;127018;-45
2020/12/06 00:35:14;;;;;;;2.55;2.00;;;;;;;22.20;28.65;100076.72;5037063;27;105926;-45
2020/12/06 00:37:40;;;;;;;2.90;2.38;;;;;;;22.19;28.92;100075.88;5049254;27;96651;-45
2020/12/06 00:40:08;;;;;;;2.40;1.98;;;;;;;22.18;29.09;100071.47;5045422;27;97985;-45
2020/12/06 00:42:34;;;;;;;2.17;1.60;;;;;;;22.19;28.77;100070.56;5040547;27;97309;-45
2020/12/06 00:45:01;;;;;;;2.30;2.00;;;;;;;22.20;28.70;100063.44;5021675;27;96769;-44
2020/12/06 00:47:26;;;;;;;2.58;2.00;;;;;;;22.20;28.71;100071.41;5064638;22;97119;-51
2020/12/06 00:49:52;;;;;;;2.25;1.88;;;;;;;22.20;28.90;100066.94;5054440;27;98228;-52
2020/12/06 00:52:17;;;;;;;2.47;2.00;;;;;;;22.20;28.79;100076.72;5038837;27;97119;-52
2020/12/06 00:54:43;;;;;;;2.38;1.90;;;;;;;22.20;28.47;100069.59;5015337;27;97055;-51
2020/12/06 00:57:09;;;;;;;3.03;2.15;;;;;;;22.20;28.84;100066.94;5015148;27;97395;-51
2020/12/06 00:59:35;;;;;;;2.63;1.80;;;;;;;22.20;28.63;100058.13;5002036;28;111454;-51
2020/12/06 01:02:03;;;;;;;2.13;1.80;;;;;;;22.20;28.50;100061.63;5027052;27;126705;-51
2020/12/06 01:04:28;;;;;;;3.80;2.45;;;;;;;22.19;28.69;100057.28;5023453;27;96723;-52
2020/12/06 01:06:56;;;;;;;2.53;2.08;;;;;;;22.20;28.47;100063.44;5024875;27;104674;-51
2020/12/06 01:09:21;;;;;;;2.33;2.00;;;;;;;22.20;28.76;100058.97;4993929;28;97503;-51
2020/12/06 01:11:50;;;;;;;2.55;2.03;;;;;;;22.19;28.84;100059.94;5006614;28;126507;-51
2020/12/06 01:14:15;;;;;;;2.75;2.20;;;;;;;22.19;28.33;100057.28;5028567;27;96772;-52
2020/12/06 01:16:40;;;;;;;2.60;2.28;;;;;;;22.20;28.58;100066.09;5021583;27;113784;-51
2020/12/06 01:19:06;;;;;;;2.35;2.00;;;;;;;22.19;28.66;100067.91;5026464;27;126825;-51
2020/12/06 01:21:31;;;;;;;2.67;2.00;;;;;;;22.19;28.63;100064.34;5031822;27;97214;-51
2020/12/06 01:23:57;;;;;;;2.30;1.98;;;;;;;22.19;28.72;100067.91;5028740;28;110594;-51
2020/12/06 01:26:22;;;;;;;2.22;1.83;;;;;;;22.19;28.43;100065.25;5027815;27;113110;-51
2020/12/06 01:28:48;;;;;;;3.25;2.00;;;;;;;22.18;28.47;100067.97;5026097;28;126921;-51
2020/12/06 01:31:14;;;;;;;2.03;1.83;;;;;;;22.19;28.38;100061.69;5025158;28;126443;-52
2020/12/06 01:33:40;;;;;;;2.45;2.17;;;;;;;22.18;28.79;100071.47;5028076;27;96751;-51
2020/12/06 01:36:05;;;;;;;2.20;1.75;;;;;;;22.18;28.44;100074.13;5000348;28;103990;-51
2020/12/06 01:38:30;;;;;;;2.28;2.00;;;;;;;22.18;28.63;100081.25;5008870;27;126353;-51
2020/12/06 01:40:56;;;;;;;2.33;1.95;;;;;;;22.18;28.72;100078.59;5010111;28;126487;-51
2020/12/06 01:43:21;;;;;;;2.78;2.30;;;;;;;22.18;28.58;100082.09;5007108;27;96793;-52
2020/12/06 01:45:47;;;;;;;2.47;2.20;;;;;;;22.17;28.64;100079.50;5030509;28;111623;-53
2020/12/06 01:48:12;;;;;;;2.10;1.90;;;;;;;22.17;28.52;100075.06;5017748;28;127429;-51
2020/12/06 01:50:38;;;;;;;2.47;1.98;;;;;;;22.17;28.47;100077.72;5004868;27;97900;-51
2020/12/06 01:53:04;;;;;;;2.28;1.80;;;;;;;22.16;28.76;100062.72;5012192;28;97135;-51
2020/12/06 01:55:30;;;;;;;2.50;2.00;;;;;;;22.17;28.60;100067.09;5033629;27;96895;-51
2020/12/06 01:58:03;;;;;;;2.35;1.85;;;;;;;22.17;28.41;100072.41;5027278;28;97478;-52
2020/12/06 02:00:29;;;;;;;;;;;;;;;22.12;28.58;100071.78;5030785;27;97074;-51
2020/12/06 02:02:55;;;;;;;2.30;1.88;;;;;;;22.13;28.79;100073.50;5033363;27;112467;-51
2020/12/06 02:05:20;;;;;;;2.40;1.92;;;;;;;22.14;28.49;100074.34;5019392;28;112589;-52
2020/12/06 02:07:46;;;;;;;2.70;2.10;;;;;;;22.15;28.55;100074.28;4998530;28;125443;-52
2020/12/06 02:10:11;;;;;;;2.00;1.80;;;;;;;22.14;28.70;100061.94;4994413;28;121417;-51
2020/12/06 02:12:37;;;;;;;2.88;2.30;;;;;;;22.14;28.43;100067.25;5032004;27;96697;-51
2020/12/06 02:15:02;;;;;;;2.22;1.80;;;;;;;22.16;28.71;100080.47;5027309;27;111396;-51
2020/12/06 02:17:31;;;;;;;2.55;2.00;;;;;;;22.15;28.65;100087.53;5033446;27;101989;-52
2020/12/06 02:19:57;;;;;;;2.58;2.15;;;;;;;22.15;28.55;100090.22;5033018;27;104562;-51
2020/12/06 02:22:22;;;;;;;2.47;1.92;;;;;;;22.14;28.33;100088.50;5029155;28;112141;-52
2020/12/06 02:24:48;;;;;;;2.45;2.03;;;;;;;22.15;28.75;100090.22;5037777;27;96738;-51
2020/12/06 02:27:13;;;;;;;2.88;2.20;;;;;;;22.16;28.27;100091.09;5030399;28;126624;-51
2020/12/06 02:29:38;;;;;;;2.28;2.08;;;;;;;22.16;28.60;100085.78;5036150;27;127235;-51
2020/12/06 02:32:05;;;;;;;1.90;1.70;;;;;;;22.16;28.71;100089.28;5018136;28;111902;-51
2020/12/06 02:34:31;;;;;;;2.60;2.00;;;;;;;22.16;28.41;100091.94;5029133;27;96850;-51
2020/12/06 02:36:56;;;;;;;2.13;1.92;;;;;;;22.16;28.47;100099.91;5031794;28;97584;-51
2020/12/06 02:39:22;;;;;;;2.65;2.08;;;;;;;22.16;28.25;100105.22;5024389;27;126533;-51
2020/12/06 02:41:48;;;;;;;2.50;1.80;;;;;;;22.17;28.61;100111.38;5012373;28;111750;-51
2020/12/06 02:44:13;;;;;;;2.50;2.15;;;;;;;22.17;28.29;100106.06;5028102;27;111794;-51
2020/12/06 02:46:39;;;;;;;3.05;2.10;;;;;;;22.16;28.66;100099.91;5036833;27;97926;-51
2020/12/06 02:49:05;;;;;;;2.28;2.03;;;;;;;22.18;28.61;100086.56;5026308;27;97815;-51
2020/12/06 02:51:31;;;;;;;2.78;1.77;;;;;;;22.17;28.34;100061.78;5032299;27;96877;-51
2020/12/06 02:53:56;;;;;;;2.53;1.92;;;;;;;22.17;28.42;100053.81;5030779;27;103305;-51
2020/12/06 02:56:22;;;;;;;2.20;2.00;;;;;;;22.17;28.52;100053.81;5029106;27;126881;-51
2020/12/06 02:58:47;;;;;;;2.22;1.90;;;;;;;22.17;28.57;100043.19;5031262;27;98247;-51
2020/12/06 03:01:13;;;;;;;2.95;1.98;;;;;;;22.17;28.54;100042.34;5030898;27;97324;-51
2020/12/06 03:03:39;;;;;;;2.55;2.00;;;;;;;22.16;28.12;100044.13;5031604;27;97114;-52
2020/12/06 03:06:05;;;;;;;2.22;1.90;;;;;;;22.17;28.63;100052.94;5028936;28;97882;-51
2020/12/06 03:08:30;;;;;;;2.20;1.90;;;;;;;22.17;28.29;100047.63;5030531;27;113057;-52
2020/12/06 03:10:56;;;;;;;2.67;2.10;;;;;;;22.17;28.18;100052.94;5031395;27;96779;-51
2020/12/06 03:13:21;;;;;;;2.03;1.83;;;;;;;22.17;28.48;100056.47;5010266;27;96626;-52
2020/12/06 03:15:47;;;;;;;2.22;2.00;;;;;;;22.16;28.41;100062.72;5029311;27;126856;-51
2020/12/06 03:18:12;;;;;;;2.28;2.08;;;;;;;22.17;28.32;100068.88;5031371;27;97245;-52
2020/12/06 03:20:38;;;;;;;2.42;2.00;;;;;;;22.15;28.45;100070.75;5009805;28;111832;-51
2020/12/06 03:23:03;;;;;;;2.20;1.80;;;;;;;22.16;28.45;100070.69;5034665;27;111404;-51
2020/12/06 03:25:28;;;;;;;2.35;2.10;;;;;;;22.16;28.42;100070.69;5015445;28;126970;-52
2020/12/06 03:27:54;;;;;;;1.92;1.65;;;;;;;22.16;28.66;100064.53;5023814;27;126490;-52
2020/12/06 03:30:19;;;;;;;2.63;2.10;;;;;;;22.16;28.35;100067.19;5012836;28;96727;-51
2020/12/06 03:32:46;;;;;;;2.80;1.90;;;;;;;22.16;28.55;100064.53;5031753;27;111675;-51
2020/12/06 03:35:11;;;;;;;2.50;1.90;;;;;;;22.15;28.35;100063.66;5026476;27;126994;-51
2020/12/06 03:37:37;;;;;;;2.47;1.98;;;;;;;22.15;28.12;100055.69;5026536;27;126564;-52
2020/12/06 03:40:03;;;;;;;2.17;1.90;;;;;;;22.15;28.34;100061.00;5027241;27;112621;-51
2020/12/06 03:42:28;;;;;;;2.28;2.08;;;;;;;22.15;28.47;100061.00;5030633;27;96747;-51
2020/12/06 03:44:54;;;;;;;2.15;1.95;;;;;;;22.15;28.64;100062.78;5027103;28;127037;-52
2020/12/06 03:47:20;;;;;;;1.85;1.60;;;;;;;22.15;28.48;100066.31;5025790;27;126581;-52
2020/12/06 03:49:45;;;;;;;2.00;1.75;;;;;;;22.15;28.16;100068.97;5028866;27;112025;-51
2020/12/06 03:52:11;;;;;;;2.08;1.85;;;;;;;22.14;28.47;100059.28;5030673;27;108797;-52
2020/12/06 03:54:36;;;;;;;2.08;1.88;;;;;;;22.14;28.66;100058.41;5024285;28;97495;-51
2020/12/06 03:57:02;;;;;;;2.13;1.92;;;;;;;22.14;28.10;100059.28;5027157;27;97141;-51
2020/12/06 03:59:27;;;;;;;2.75;2.25;;;;;;;22.14;28.46;100056.63;5029325;28;112001;-52
2020/12/06 04:01:53;;;;;;;2.95;2.28;;;;;;;22.13;28.20;100057.56;5033670;27;111755;-52
2020/12/06 04:04:18;;;;;;;2.33;2.00;;;;;;;22.14;28.11;100061.94;5019770;28;126821;-51
2020/12/06 04:06:44;;;;;;;2.10;1.88;;;;;;;22.14;28.49;100058.41;5021524;27;97286;-52
2020/12/06 04:09:09;;;;;;;2.20;1.85;;;;;;;22.14;28.53;100059.28;5002531;28;103969;-51
2020/12/06 04:11:35;;;;;;;2.15;1.95;;;;;;;22.15;28.41;100066.31;5022571;28;97009;-51
2020/12/06 04:14:00;;;;;;;2.08;1.80;;;;;;;22.15;28.40;100060.13;5019878;27;126484;-51
2020/12/06 04:16:25;;;;;;;2.08;1.80;;;;;;;22.15;28.22;100061.00;5028299;28;126487;-51
2020/12/06 04:18:51;;;;;;;1.90;1.70;;;;;;;22.15;28.35;100066.31;5006857;28;97307;-52
2020/12/06 04:21:16;;;;;;;2.13;1.90;;;;;;;22.16;28.29;100059.22;5019628;27;111591;-51
2020/12/06 04:23:42;;;;;;;2.15;1.95;;;;;;;22.15;28.53;100058.34;5009337;28;127020;-51
2020/12/06 04:26:07;;;;;;;2.03;1.77;;;;;;;22.16;28.34;100054.75;5007109;28;121184;-51
2020/12/06 04:28:33;;;;;;;2.10;1.92;;;;;;;22.16;28.59;100053.91;5003692;27;113106;-51
2020/12/06 04:30:58;;;;;;;2.38;2.05;;;;;;;22.17;28.39;100058.25;5021598;27;97278;-52
2020/12/06 04:33:24;;;;;;;2.22;1.90;;;;;;;22.16;28.60;100051.25;5006408;28;126939;-52
2020/12/06 04:35:49;;;;;;;2.33;2.13;;;;;;;22.16;28.44;100057.41;5018303;28;124928;-52
2020/12/06 04:38:16;;;;;;;1.90;1.60;;;;;;;22.15;28.29;100054.81;5004256;28;111853;-51
2020/12/06 04:40:41;;;;;;;2.15;1.95;;;;;;;22.17;28.31;100055.59;5006252;28;96901;-52
2020/12/06 04:43:07;;;;;;;2.10;1.90;;;;;;;22.15;28.40;100050.38;5020061;28;105222;-52
2020/12/06 04:45:32;;;;;;;2.30;2.00;;;;;;;22.16;28.28;100053.91;5007365;27;103558;-52
2020/12/06 04:48:05;;;;;;;2.55;1.90;;;;;;;22.15;28.49;100054.81;4993185;28;113315;-51
2020/12/06 04:50:34;;;;;;;2.40;2.20;;;;;;;22.15;28.15;100061.00;5027471;27;96836;-52
2020/12/06 04:53:01;;;;;;;2.05;1.75;;;;;;;22.14;28.41;100053.97;5009956;28;99593;-51
2020/12/06 04:55:30;;;;;;;2.60;1.70;;;;;;;22.16;28.64;100053.91;5011432;28;97221;-51
2020/12/06 04:57:56;;;;;;;2.53;2.10;;;;;;;22.15;28.57;100047.72;5023505;27;104612;-51
2020/12/06 05:00:30;;;;;;;1.90;1.70;;;;;;;22.15;28.40;100057.47;5025080;27;97572;-51
2020/12/06 05:02:56;;;;;;;2.40;2.20;;;;;;;22.15;28.61;100063.66;5025329;27;97711;-51
2020/12/06 05:05:22;;;;;;;1.63;1.52;;;;;;;22.15;28.48;100060.13;4991455;28;126258;-51
2020/12/06 05:07:47;;;;;;;2.17;1.98;;;;;;;22.15;28.49;100061.00;5004881;27;112108;-51
2020/12/06 05:10:13;;;;;;;3.03;2.35;;;;;;;22.14;28.16;100061.94;4975549;28;98250;-51
2020/12/06 05:12:39;;;;;;;2.15;1.80;;;;;;;22.14;28.32;100050.44;5024137;28;116676;-51
2020/12/06 05:15:05;;;;;;;2.30;2.00;;;;;;;22.16;28.36;100051.25;5026595;27;126474;-51
2020/12/06 05:17:31;;;;;;;2.15;1.83;;;;;;;22.14;28.26;100048.66;4998758;28;96790;-52
2020/12/06 05:20:08;;;;;;;1.95;1.65;;;;;;;22.14;28.15;100051.31;5021104;27;112564;-51
2020/12/06 05:22:33;;;;;;;2.03;1.83;;;;;;;22.14;28.42;100045.13;5024192;27;98097;-51
2020/12/06 05:24:59;;;;;;;2.20;2.00;;;;;;;22.14;28.32;100046.00;5020913;27;107190;-51
2020/12/06 05:27:24;;;;;;;1.90;1.60;;;;;;;22.14;28.32;100046.00;5030610;27;111925;-51
2020/12/06 05:29:51;;;;;;;2.20;1.83;;;;;;;22.15;28.33;100047.72;5020881;27;96838;-52
2020/12/06 05:32:16;;;;;;;2.10;1.90;;;;;;;22.13;28.47;100038.97;5011455;28;126315;-51
2020/12/06 05:34:42;;;;;;;2.20;1.67;;;;;;;22.13;28.42;100052.25;5024302;28;106034;-51
2020/12/06 05:37:07;;;;;;;2.15;1.95;;;;;;;22.13;28.21;100052.25;5000560;28;112080;-51
2020/12/06 05:39:33;;;;;;;2.00;1.80;;;;;;;22.13;28.17;100043.41;5028580;27;109077;-51
2020/12/06 05:41:59;;;;;;;2.05;1.85;;;;;;;22.13;28.42;100046.94;5005182;28;97594;-52
2020/12/06 05:44:25;;;;;;;2.00;1.80;;;;;;;22.14;28.15;100042.47;5020454;27;97320;-51
2020/12/06 05:46:50;;;;;;;2.28;1.60;;;;;;;22.13;28.56;100046.06;5025344;27;96693;-51
2020/12/06 05:49:19;;;;;;;2.20;1.70;;;;;;;22.14;28.58;100045.13;5025759;28;111778;-51
2020/12/06 05:51:52;;;;;;;2.35;1.88;;;;;;;22.13;28.04;100046.94;5024331;28;97595;-51
2020/12/06 05:54:21;;;;;;;2.10;1.90;;;;;;;22.13;28.22;100051.38;5026790;28;97230;-52
2020/12/06 05:56:46;;;;;;;1.95;1.70;;;;;;;22.13;28.04;100049.59;5005767;28;97470;-52
2020/12/06 05:59:12;;;;;;;2.13;1.90;;;;;;;22.14;28.52;100042.47;4989640;27;97816;-51
2020/12/06 06:01:37;;;;;;;1.95;1.60;;;;;;;22.13;28.47;100038.97;5010415;28;126761;-51
2020/12/06 06:04:03;;;;;;;1.70;1.58;;;;;;;22.14;28.22;100031.84;4996997;28;96991;-52
2020/12/06 06:06:49;;;;;;;2.20;2.00;;;;;;;22.12;28.36;100034.59;5013179;27;96689;-52
2020/12/06 06:09:14;;;;;;;2.00;1.80;;;;;;;22.12;28.30;100023.97;5000034;27;113024;-51
2020/12/06 06:11:41;;;;;;;2.17;1.70;;;;;;;22.13;28.18;100030.16;5006278;28;98827;-51
2020/12/06 06:14:11;;;;;;;2.83;2.10;;;;;;;22.12;28.15;100029.28;5006415;28;127178;-52
2020/12/06 06:16:37;;;;;;;2.58;1.73;;;;;;;22.13;28.47;100024.84;5027376;28;96759;-51
2020/12/06 06:19:03;;;;;;;2.03;1.60;;;;;;;22.13;28.48;100031.00;5031001;27;113267;-51
2020/12/06 06:21:44;;;;;;;2.00;1.80;;;;;;;22.13;28.27;100033.66;5002343;27;113407;-52
2020/12/06 06:24:14;;;;;;;2.25;1.88;;;;;;;22.13;28.35;100027.50;4987231;28;97244;-51
2020/12/06 06:26:41;;;;;;;2.00;1.73;;;;;;;22.12;28.00;100026.63;4990381;28;109516;-52
2020/12/06 06:29:16;;;;;;;1.63;1.52;;;;;;;22.13;28.52;100024.84;4992897;28;112265;-51
2020/12/06 06:31:45;;;;;;;1.90;1.70;;;;;;;22.13;28.18;100030.16;5023285;27;120692;-52
2020/12/06 06:34:10;;;;;;;2.20;1.83;;;;;;;22.13;28.40;100025.69;5023427;27;97717;-51
2020/12/06 06:36:36;;;;;;;1.63;1.52;;;;;;;22.12;28.11;100017.78;5026102;27;96835;-51
2020/12/06 06:39:03;;;;;;;1.65;1.52;;;;;;;22.12;28.16;100026.63;5022190;28;99688;-51
2020/12/06 06:41:28;;;;;;;2.40;2.20;;;;;;;22.13;28.36;100024.84;5020792;28;122681;-51
2020/12/06 06:44:01;;;;;;;2.30;2.10;;;;;;;22.11;28.14;100024.91;5012133;28;126630;-51
2020/12/06 06:46:33;;;;;;;2.43;1.80;;;;;;;22.11;28.31;100035.53;5027465;27;96961;-52
2020/12/06 06:49:06;;;;;;;1.92;1.63;;;;;;;22.11;28.47;100038.19;5031643;27;109944;-51
2020/12/06 06:51:32;;;;;;;1.88;1.67;;;;;;;22.11;28.11;100040.84;4995718;28;97533;-51
2020/12/06 06:53:57;;;;;;;1.75;1.65;;;;;;;22.12;28.17;100039.03;5029678;27;125204;-51
2020/12/06 06:56:23;;;;;;;2.10;1.90;;;;;;;22.11;28.40;100032.88;4997753;28;101528;-51
2020/12/06 06:58:49;;;;;;;2.47;1.88;;;;;;;22.12;28.31;100041.69;5010999;28;106828;-51
2020/12/06 07:01:22;;;;;;;2.15;1.95;;;;;;;22.12;28.50;100039.03;5034244;27;97585;-51
2020/12/06 07:03:48;;;;;;;1.90;1.67;;;;;;;22.12;28.10;100041.69;5013253;28;97379;-52
2020/12/06 07:06:42;;;;;;;2.20;2.00;;;;;;;22.11;28.20;100046.16;5030505;27;97175;-51
2020/12/06 07:09:07;;;;;;;6.37;2.10;;;;;;;22.11;28.40;100038.19;5027525;27;97402;-53
2020/12/06 07:11:33;;;;;;;4.65;3.10;;;;;;;22.12;28.15;100029.28;5002988;27;126803;-53
2020/12/06 07:14:00;;;;;;;2.38;1.70;;;;;;;22.13;28.30;100030.16;5025376;27;97218;-53
2020/12/06 07:16:26;;;;;;;3.97;2.30;;;;;;;22.12;28.50;100034.59;4988167;28;111953;-53
2020/12/06 07:18:51;;;;;;;3.33;2.00;;;;;;;22.12;28.50;100029.28;5031253;28;111688;-53
2020/12/06 07:21:17;;;;;;;7.18;3.10;;;;;;;22.12;28.40;100028.41;5028914;28;128010;-53
2020/12/06 07:23:42;;;;;;;4.80;2.55;;;;;;;22.12;27.97;100015.13;5030390;27;126437;-54
2020/12/06 07:26:08;;;;;;;4.20;2.75;;;;;;;22.12;28.04;100013.34;5030998;28;96651;-53
2020/12/06 07:28:33;;;;;;;3.50;2.78;;;;;;;22.11;28.31;100027.56;5023938;27;111720;-54
2020/12/06 07:30:58;;;;;;;4.82;2.67;;;;;;;22.12;28.36;100028.41;5006543;28;126492;-53
2020/12/06 07:33:24;;;;;;;3.75;2.53;;;;;;;22.13;28.28;100030.16;5030528;27;126691;-54
2020/12/06 07:35:50;;;;;;;4.40;3.03;;;;;;;22.12;28.28;100026.63;5015228;27;98504;-52
2020/12/06 07:38:15;;;;;;;4.97;2.95;;;;;;;22.12;28.15;100028.41;5036724;27;96764;-53
2020/12/06 07:40:41;;;;;;;3.55;2.80;;;;;;;22.12;28.23;100029.28;5016951;28;98015;-53
2020/12/06 07:43:12;;;;;;;3.08;2.15;;;;;;;22.12;27.85;100036.38;5016573;28;126678;-54
2020/12/06 07:45:39;;;;;;;2.97;2.40;;;;;;;22.12;28.23;100045.22;5010428;28;96741;-53
2020/12/06 07:48:05;;;;;;;2.72;2.40;;;;;;;22.12;27.82;100047.00;5002356;28;96662;-52
2020/12/06 07:50:30;;;;;;;2.67;2.40;;;;;;;22.11;27.89;100038.19;5017650;27;97588;-52
2020/12/06 07:53:01;;;;;;;3.10;2.05;;;;;;;22.12;28.02;100045.22;5034474;27;126419;-52
2020/12/06 07:55:26;;;;;;;2.70;2.50;;;;;;;22.11;28.34;100045.28;5037108;27;96783;-52
2020/12/06 07:57:53;;;;;;;3.47;2.40;;;;;;;22.11;28.34;100046.16;5035820;27;111859;-52
2020/12/06 08:00:21;;;;;;;7.80;6.85;;;;;;;22.10;27.56;100055.03;4994701;27;97551;-53
2020/12/06 08:02:53;;;;;;;10.68;9.57;;;;;;;22.01;26.66;100056.38;5036125;27;97216;-43
2020/12/06 08:05:20;;;;;;;9.82;8.30;;;;;;;21.85;26.45;100052.69;5036044;27;96671;-43
2020/12/06 08:07:55;;;;;;;8.55;7.50;;;;;;;21.76;26.72;100050.47;4998800;28;96982;-43
2020/12/06 08:10:20;;;;;;;6.38;5.60;;;;;;;21.73;26.94;100054.13;4999745;28;97437;-43
2020/12/06 08:12:46;;;;;;;7.07;5.88;;;;;;;21.74;27.18;100061.16;5030280;27;127187;-43
2020/12/06 08:15:12;;;;;;;5.70;5.10;;;;;;;21.74;27.28;100058.50;5012310;28;102328;-43
2020/12/06 08:17:48;;;;;;;8.50;5.13;;;;;;;21.74;27.09;100063.81;5036760;27;99700;-43
2020/12/06 08:20:15;;;;;;;6.80;5.18;;;;;;;21.75;27.00;100060.22;5017636;27;97105;-43
2020/12/06 08:22:59;;;;;;;6.05;4.72;;;;;;;21.77;27.43;100061.00;5043352;27;98448;-43
2020/12/06 08:25:25;;;;;;;;;;;;;;;21.73;27.45;100067.41;5034573;27;96705;-43
2020/12/06 08:27:50;;;;;;;7.15;4.35;;;;;;;21.75;27.39;100073.50;5037076;27;96826;-43
2020/12/06 08:30:17;;;;;;;5.25;4.00;;;;;;;21.78;27.31;100068.06;5035564;27;97487;-43
2020/12/06 08:32:56;;;;;;;4.18;3.78;;;;;;;21.79;27.48;100068.91;5035849;27;97260;-43
2020/12/06 08:35:48;;;;;;;4.35;3.88;;;;;;;21.80;27.53;100074.16;5032368;27;96766;-43
2020/12/06 08:38:21;;;;;;;3.88;3.47;;;;;;;21.81;27.60;100072.34;5019206;27;96915;-43
2020/12/06 08:41:01;;;;;;;4.73;3.40;;;;;;;21.81;27.42;100073.19;5035865;28;98394;-43
2020/12/06 08:43:49;;;;;;;4.57;4.10;;;;;;;21.82;27.69;100072.28;5031879;27;97206;-43
2020/12/06 08:46:24;;;;;;;4.00;3.03;;;;;;;21.83;27.72;100065.16;5026619;27;96864;-44
2020/12/06 08:48:56;;;;;;;4.03;3.55;;;;;;;21.83;27.68;100066.03;5034269;27;97328;-43
2020/12/06 08:51:49;;;;;;;3.47;3.15;;;;;;;21.84;27.73;100062.44;5021981;27;96755;-43
2020/12/06 08:54:14;;;;;;;3.55;3.03;;;;;;;21.86;27.71;100071.19;5014787;28;98327;-44
2020/12/06 08:56:41;;;;;;;3.40;3.10;;;;;;;21.87;27.32;100066.75;4983428;28;96723;-43
2020/12/06 08:59:14;;;;;;;2.90;2.60;;;;;;;21.89;27.60;100072.00;5019581;28;96715;-43
2020/12/06 09:01:46;;;;;;;4.03;3.03;;;;;;;21.89;27.71;100075.53;5037422;28;97819;-43
2020/12/06 09:04:12;;;;;;;3.58;3.17;;;;;;;21.89;27.85;100067.56;5038945;27;97374;-43
2020/12/06 09:06:38;;;;;;;2.97;2.70;;;;;;;21.91;27.69;100075.44;5039618;27;96981;-43
2020/12/06 09:09:06;;;;;;;3.03;2.47;;;;;;;21.92;27.59;100077.16;5039260;28;96855;-43
2020/12/06 09:11:31;;;;;;;3.85;2.60;;;;;;;21.93;27.52;100078.91;5038919;27;97471;-43
2020/12/06 09:13:57;;;;;;;2.78;2.58;;;;;;;21.93;27.57;100082.41;5020047;28;126511;-43
2020/12/06 09:16:22;;;;;;;3.83;2.75;;;;;;;21.94;27.84;100064.66;5021638;28;96938;-43
2020/12/06 09:18:48;;;;;;;3.05;2.53;;;;;;;21.95;27.55;100045.16;5038562;27;111706;-43
2020/12/06 09:21:14;;;;;;;3.10;2.50;;;;;;;21.94;27.76;100038.97;5038294;27;118703;-43
2020/12/06 09:23:39;;;;;;;2.80;2.50;;;;;;;21.95;27.59;100043.38;5038867;27;99273;-43
2020/12/06 09:26:05;;;;;;;2.83;2.53;;;;;;;21.96;27.58;100046.88;5048254;27;96708;-43
2020/12/06 09:28:31;;;;;;;3.08;2.78;;;;;;;21.96;27.84;100055.72;5043884;27;96859;-43
2020/12/06 09:30:56;;;;;;;3.90;2.65;;;;;;;21.97;27.88;100064.53;5038974;28;97529;-43
2020/12/06 09:33:22;;;;;;;2.85;2.60;;;;;;;21.98;27.63;100060.97;5038768;27;97419;-43
2020/12/06 09:35:48;;;;;;;2.78;2.42;;;;;;;21.97;27.87;100060.06;5039082;27;96869;-43
2020/12/06 09:38:13;;;;;;;2.70;2.30;;;;;;;21.98;27.87;100055.66;5038680;27;96656;-43
2020/12/06 09:40:39;;;;;;;2.72;2.50;;;;;;;21.98;27.54;100055.66;5038265;27;97544;-43
2020/12/06 09:43:04;;;;;;;3.00;2.30;;;;;;;21.99;27.93;100062.66;5037836;27;120667;-43
2020/12/06 09:45:30;;;;;;;2.88;2.40;;;;;;;21.99;27.97;100052.91;5038284;27;112032;-43
2020/12/06 09:47:55;;;;;;;3.13;2.83;;;;;;;21.98;27.73;100037.06;5038559;27;96965;-43
2020/12/06 09:50:21;;;;;;;3.53;2.63;;;;;;;22.00;27.68;100029.88;5019622;28;124185;-43
2020/12/06 09:52:46;;;;;;;2.30;2.10;;;;;;;22.00;27.91;100028.06;5020266;28;128272;-43
2020/12/06 09:55:12;;;;;;;2.90;2.45;;;;;;;22.00;27.75;100024.56;5029512;28;111704;-43
2020/12/06 09:57:37;;;;;;;2.60;2.40;;;;;;;22.00;28.00;100019.25;5027760;22;98931;-53
2020/12/06 10:00:04;;;;;;;2.60;2.35;;;;;;;22.00;27.98;100021.91;5016978;28;107916;-53
2020/12/06 10:02:37;;;;;;;2.80;2.50;;;;;;;22.01;27.87;100023.63;5015526;28;96986;-53
2020/12/06 10:05:03;;;;;;;2.85;2.30;;;;;;;22.01;27.95;100020.97;5015442;28;115019;-52
2020/12/06 10:07:28;;;;;;;3.40;2.20;;;;;;;22.01;27.70;100018.31;5013560;28;116016;-53
2020/12/06 10:09:54;;;;;;;2.40;2.20;;;;;;;22.00;27.75;100012.13;5013311;28;126749;-53
2020/12/06 10:12:19;;;;;;;2.75;2.53;;;;;;;22.02;27.75;100020.03;5014057;28;126712;-53
2020/12/06 10:14:45;;;;;;;2.50;2.30;;;;;;;22.02;27.93;100014.72;5015139;28;97426;-52
2020/12/06 10:17:11;;;;;;;2.70;2.40;;;;;;;22.01;27.83;100011.22;5014345;28;117629;-52
2020/12/06 10:19:36;;;;;;;2.50;2.30;;;;;;;22.02;28.00;100006.75;5015777;28;97547;-53
2020/12/06 10:22:01;;;;;;;3.17;2.40;;;;;;;22.01;28.26;100016.53;5013918;28;126512;-53
2020/12/06 10:24:28;;;;;;;2.30;2.10;;;;;;;22.02;27.56;100022.69;5010795;28;96860;-52
2020/12/06 10:26:54;;;;;;;2.55;2.35;;;;;;;22.02;28.01;100020.03;5013385;28;112416;-53
2020/12/06 10:29:20;;;;;;;2.75;2.40;;;;;;;22.02;27.79;100018.25;5018141;28;97896;-52
2020/12/06 10:31:49;;;;;;;2.30;2.10;;;;;;;22.02;28.01;100020.03;5011085;28;126373;-53
2020/12/06 10:34:15;;;;;;;2.60;2.30;;;;;;;22.03;28.00;100013.78;5013677;28;110791;-53
2020/12/06 10:36:41;;;;;;;3.38;2.42;;;;;;;22.02;27.73;100001.44;5015160;28;96781;-52
2020/12/06 10:39:06;;;;;;;2.70;2.20;;;;;;;22.02;28.08;99998.78;5012594;28;126790;-52
2020/12/06 10:41:31;;;;;;;2.65;2.40;;;;;;;22.01;28.08;100002.38;5014971;28;103625;-53
2020/12/06 10:43:57;;;;;;;3.00;2.60;;;;;;;22.03;28.01;100005.81;5015346;28;96797;-52
2020/12/06 10:46:26;;;;;;;2.53;2.30;;;;;;;22.03;28.01;100003.16;5014145;28;116784;-52
2020/12/06 10:48:52;;;;;;;2.60;2.40;;;;;;;22.02;27.92;100007.63;5013636;28;97758;-53
2020/12/06 10:51:17;;;;;;;2.92;2.35;;;;;;;22.03;27.79;100016.44;5014208;28;123374;-52
2020/12/06 10:53:43;;;;;;;2.90;2.40;;;;;;;22.03;27.71;100019.09;5025879;28;97684;-52
2020/12/06 10:56:08;;;;;;;2.55;2.33;;;;;;;22.04;28.10;100015.50;5014455;28;116736;-53
2020/12/06 10:58:34;;;;;;;3.25;2.50;;;;;;;22.02;28.05;100012.94;5013713;28;128380;-53
2020/12/06 11:00:59;;;;;;;2.47;2.20;;;;;;;22.03;27.98;100004.03;5010030;28;127143;-52
2020/12/06 11:03:25;;;;;;;2.47;2.28;;;;;;;22.02;27.72;99997.00;5013878;28;117993;-53
2020/12/06 11:05:50;;;;;;;2.60;2.40;;;;;;;22.03;27.83;99995.19;5015079;28;96813;-53
2020/12/06 11:08:15;;;;;;;2.90;2.17;;;;;;;22.03;28.13;100009.34;5013944;28;127372;-53
2020/12/06 11:10:41;;;;;;;3.15;2.80;;;;;;;22.03;27.89;100008.47;5014452;28;97169;-53
2020/12/06 11:13:06;;;;;;;2.60;2.30;;;;;;;22.03;27.81;100014.66;5011157;28;96870;-52
2020/12/06 11:15:32;;;;;;;2.67;2.33;;;;;;;22.03;27.98;100013.78;5014395;28;116450;-53
2020/12/06 11:17:58;;;;;;;2.75;2.55;;;;;;;22.03;27.91;100014.66;5013681;28;110131;-53
2020/12/06 11:20:23;;;;;;;2.53;2.17;;;;;;;22.04;28.16;100021.66;5013039;28;126692;-52